sensor_id;sensor_type;location;lat;lon;timestamp;P1;durP1;ratioP1;P2;durP2;ratioP2
3341;SDS011;1684;50.748;6.154;2023-04-03T00:00:42;5.90;;;3.87;;
3341;SDS011;1684;50.748;6.154;2023-04-03T00:03:10;4.63;;;2.80;;
3341;SDS011;1684;50.748;6.154;2023-04-03T00:05:39;5.30;;;3.00;;
3341;SDS011;1684;50.748;6.154;2023-04-03T00:08:07;4.50;;;3.10;;
3341;SDS011;1684;50.748;6.154;2023-04-03T00:10:35;5.53;;;3.13;;
3341;SDS011;1684;50.748;6.154;2023-04-03T00:13:05;5.77;;;3.07;;
3341;SDS011;1684;50.748;6.154;2023-04-03T00:15:34;8.10;;;2.60;;
3341;SDS011;1684;50.748;6.154;2023-04-03T00:18:03;4.90;;;3.10;;
3341;SDS011;1684;50.748;6.154;2023-04-03T00:20:32;4.97;;;3.13;;
3341;SDS011;1684;50.748;6.154;2023-04-03T00:23:01;5.10;;;2.40;;
3341;SDS011;1684;50.748;6.154;2023-04-03T00:25:29;7.57;;;2.80;;
3341;SDS011;1684;50.748;6.154;2023-04-03T00:27:57;3.87;;;2.90;;
3341;SDS011;1684;50.748;6.154;2023-04-03T00:30:26;5.03;;;2.87;;
3341;SDS011;1684;50.748;6.154;2023-04-03T00:32:55;5.33;;;3.13;;
3341;SDS011;1684;50.748;6.154;2023-04-03T00:35:24;4.00;;;2.37;;
3341;SDS011;1684;50.748;6.154;2023-04-03T00:37:52;5.17;;;3.47;;
3341;SDS011;1684;50.748;6.154;2023-04-03T00:40:21;5.83;;;2.50;;
3341;SDS011;1684;50.748;6.154;2023-04-03T00:42:51;5.50;;;2.70;;
3341;SDS011;1684;50.748;6.154;2023-04-03T00:45:25;5.07;;;2.40;;
3341;SDS011;1684;50.748;6.154;2023-04-03T00:47:55;5.03;;;2.97;;
3341;SDS011;1684;50.748;6.154;2023-04-03T00:50:26;5.07;;;3.50;;
3341;SDS011;1684;50.748;6.154;2023-04-03T00:52:54;4.37;;;2.73;;
3341;SDS011;1684;50.748;6.154;2023-04-03T00:55:23;7.47;;;2.67;;
3341;SDS011;1684;50.748;6.154;2023-04-03T00:57:52;5.40;;;2.80;;
3341;SDS011;1684;50.748;6.154;2023-04-03T01:00:21;3.97;;;2.87;;
3341;SDS011;1684;50.748;6.154;2023-04-03T01:02:50;4.70;;;2.60;;
3341;SDS011;1684;50.748;6.154;2023-04-03T01:05:20;4.07;;;2.70;;
3341;SDS011;1684;50.748;6.154;2023-04-03T01:07:49;8.10;;;3.30;;
3341;SDS011;1684;50.748;6.154;2023-04-03T01:10:18;6.30;;;3.00;;
3341;SDS011;1684;50.748;6.154;2023-04-03T01:12:48;4.60;;;2.53;;
3341;SDS011;1684;50.748;6.154;2023-04-03T01:15:17;4.50;;;2.40;;
3341;SDS011;1684;50.748;6.154;2023-04-03T01:17:46;4.27;;;2.17;;
3341;SDS011;1684;50.748;6.154;2023-04-03T01:20:21;4.33;;;2.63;;
3341;SDS011;1684;50.748;6.154;2023-04-03T01:22:53;5.23;;;2.70;;
3341;SDS011;1684;50.748;6.154;2023-04-03T01:25:24;4.03;;;2.73;;
3341;SDS011;1684;50.748;6.154;2023-04-03T01:27:52;4.93;;;2.77;;
3341;SDS011;1684;50.748;6.154;2023-04-03T01:30:21;6.23;;;3.03;;
3341;SDS011;1684;50.748;6.154;2023-04-03T01:32:53;6.00;;;2.80;;
3341;SDS011;1684;50.748;6.154;2023-04-03T01:35:21;10.80;;;2.80;;
3341;SDS011;1684;50.748;6.154;2023-04-03T01:37:49;4.30;;;2.33;;
3341;SDS011;1684;50.748;6.154;2023-04-03T01:40:17;4.40;;;2.53;;
3341;SDS011;1684;50.748;6.154;2023-04-03T01:42:46;3.90;;;2.27;;
3341;SDS011;1684;50.748;6.154;2023-04-03T01:45:14;3.90;;;2.30;;
3341;SDS011;1684;50.748;6.154;2023-04-03T01:47:42;4.97;;;2.93;;
3341;SDS011;1684;50.748;6.154;2023-04-03T01:50:12;5.43;;;2.80;;
3341;SDS011;1684;50.748;6.154;2023-04-03T01:52:40;7.00;;;3.40;;
3341;SDS011;1684;50.748;6.154;2023-04-03T01:55:09;4.97;;;2.70;;
3341;SDS011;1684;50.748;6.154;2023-04-03T01:57:37;4.37;;;2.83;;
3341;SDS011;1684;50.748;6.154;2023-04-03T02:00:06;5.50;;;2.70;;
3341;SDS011;1684;50.748;6.154;2023-04-03T02:02:35;4.37;;;2.67;;
3341;SDS011;1684;50.748;6.154;2023-04-03T02:05:03;3.57;;;2.10;;
3341;SDS011;1684;50.748;6.154;2023-04-03T02:07:33;9.00;;;3.57;;
3341;SDS011;1684;50.748;6.154;2023-04-03T02:10:02;4.90;;;2.50;;
3341;SDS011;1684;50.748;6.154;2023-04-03T02:12:30;4.03;;;2.67;;
3341;SDS011;1684;50.748;6.154;2023-04-03T02:14:58;7.03;;;2.63;;
3341;SDS011;1684;50.748;6.154;2023-04-03T02:17:27;4.90;;;3.10;;
3341;SDS011;1684;50.748;6.154;2023-04-03T02:19:55;3.73;;;2.57;;
3341;SDS011;1684;50.748;6.154;2023-04-03T02:22:23;4.57;;;2.80;;
3341;SDS011;1684;50.748;6.154;2023-04-03T02:24:53;6.90;;;3.30;;
3341;SDS011;1684;50.748;6.154;2023-04-03T02:27:21;5.10;;;2.20;;
3341;SDS011;1684;50.748;6.154;2023-04-03T02:29:49;5.73;;;2.87;;
3341;SDS011;1684;50.748;6.154;2023-04-03T02:32:18;6.13;;;3.30;;
3341;SDS011;1684;50.748;6.154;2023-04-03T02:34:46;5.83;;;2.70;;
3341;SDS011;1684;50.748;6.154;2023-04-03T02:37:14;5.20;;;3.27;;
3341;SDS011;1684;50.748;6.154;2023-04-03T02:39:42;3.50;;;2.10;;
3341;SDS011;1684;50.748;6.154;2023-04-03T02:42:12;6.60;;;3.03;;
3341;SDS011;1684;50.748;6.154;2023-04-03T02:44:40;5.27;;;2.87;;
3341;SDS011;1684;50.748;6.154;2023-04-03T02:47:09;5.80;;;3.17;;
3341;SDS011;1684;50.748;6.154;2023-04-03T02:49:37;4.03;;;2.10;;
3341;SDS011;1684;50.748;6.154;2023-04-03T02:52:05;4.03;;;2.40;;
3341;SDS011;1684;50.748;6.154;2023-04-03T02:54:33;5.33;;;2.60;;
3341;SDS011;1684;50.748;6.154;2023-04-03T02:57:02;4.93;;;2.83;;
3341;SDS011;1684;50.748;6.154;2023-04-03T02:59:31;5.70;;;3.20;;
3341;SDS011;1684;50.748;6.154;2023-04-03T03:02:00;3.87;;;2.50;;
3341;SDS011;1684;50.748;6.154;2023-04-03T03:04:28;5.30;;;2.90;;
3341;SDS011;1684;50.748;6.154;2023-04-03T03:06:56;5.73;;;2.63;;
3341;SDS011;1684;50.748;6.154;2023-04-03T03:09:24;4.80;;;3.90;;
3341;SDS011;1684;50.748;6.154;2023-04-03T03:11:53;7.73;;;3.87;;
3341;SDS011;1684;50.748;6.154;2023-04-03T03:14:21;5.97;;;3.00;;
3341;SDS011;1684;50.748;6.154;2023-04-03T03:16:50;5.27;;;3.17;;
3341;SDS011;1684;50.748;6.154;2023-04-03T03:19:19;6.83;;;2.90;;
3341;SDS011;1684;50.748;6.154;2023-04-03T03:21:47;6.30;;;3.40;;
3341;SDS011;1684;50.748;6.154;2023-04-03T03:24:16;7.57;;;3.73;;
3341;SDS011;1684;50.748;6.154;2023-04-03T03:26:44;4.63;;;2.20;;
3341;SDS011;1684;50.748;6.154;2023-04-03T03:29:12;6.20;;;4.03;;
3341;SDS011;1684;50.748;6.154;2023-04-03T03:31:41;6.50;;;3.43;;
3341;SDS011;1684;50.748;6.154;2023-04-03T03:34:10;6.60;;;2.63;;
3341;SDS011;1684;50.748;6.154;2023-04-03T03:36:39;4.47;;;2.53;;
3341;SDS011;1684;50.748;6.154;2023-04-03T03:39:07;8.97;;;3.77;;
3341;SDS011;1684;50.748;6.154;2023-04-03T03:41:36;8.97;;;4.33;;
3341;SDS011;1684;50.748;6.154;2023-04-03T03:44:04;6.37;;;3.37;;
3341;SDS011;1684;50.748;6.154;2023-04-03T03:46:32;9.53;;;3.80;;
3341;SDS011;1684;50.748;6.154;2023-04-03T03:49:01;3.83;;;2.90;;
3341;SDS011;1684;50.748;6.154;2023-04-03T03:51:30;7.50;;;2.77;;
3341;SDS011;1684;50.748;6.154;2023-04-03T03:53:59;7.80;;;3.47;;
3341;SDS011;1684;50.748;6.154;2023-04-03T03:56:27;12.77;;;5.57;;
3341;SDS011;1684;50.748;6.154;2023-04-03T03:58:55;6.00;;;3.17;;
3341;SDS011;1684;50.748;6.154;2023-04-03T04:01:23;9.60;;;4.50;;
3341;SDS011;1684;50.748;6.154;2023-04-03T04:03:52;12.50;;;3.80;;
3341;SDS011;1684;50.748;6.154;2023-04-03T04:06:21;8.63;;;3.43;;
3341;SDS011;1684;50.748;6.154;2023-04-03T04:08:51;4.50;;;2.70;;
3341;SDS011;1684;50.748;6.154;2023-04-03T04:11:19;7.33;;;3.27;;
3341;SDS011;1684;50.748;6.154;2023-04-03T04:13:48;4.40;;;2.80;;
3341;SDS011;1684;50.748;6.154;2023-04-03T04:16:16;6.07;;;3.10;;
3341;SDS011;1684;50.748;6.154;2023-04-03T04:18:44;13.17;;;4.77;;
3341;SDS011;1684;50.748;6.154;2023-04-03T04:21:13;8.93;;;5.57;;
3341;SDS011;1684;50.748;6.154;2023-04-03T04:23:41;12.70;;;5.23;;
3341;SDS011;1684;50.748;6.154;2023-04-03T04:26:10;8.10;;;4.50;;
3341;SDS011;1684;50.748;6.154;2023-04-03T04:28:39;8.10;;;3.80;;
3341;SDS011;1684;50.748;6.154;2023-04-03T04:31:07;7.40;;;2.73;;
3341;SDS011;1684;50.748;6.154;2023-04-03T04:33:35;3.87;;;2.80;;
3341;SDS011;1684;50.748;6.154;2023-04-03T04:36:04;5.33;;;3.27;;
3341;SDS011;1684;50.748;6.154;2023-04-03T04:38:32;7.30;;;3.87;;
3341;SDS011;1684;50.748;6.154;2023-04-03T04:41:00;7.93;;;4.33;;
3341;SDS011;1684;50.748;6.154;2023-04-03T04:43:33;6.37;;;4.40;;
3341;SDS011;1684;50.748;6.154;2023-04-03T04:46:02;8.17;;;4.83;;
3341;SDS011;1684;50.748;6.154;2023-04-03T04:48:30;5.23;;;3.23;;
3341;SDS011;1684;50.748;6.154;2023-04-03T04:50:59;7.00;;;3.80;;
3341;SDS011;1684;50.748;6.154;2023-04-03T04:53:27;8.33;;;5.60;;
3341;SDS011;1684;50.748;6.154;2023-04-03T04:55:55;11.70;;;5.50;;
3341;SDS011;1684;50.748;6.154;2023-04-03T04:58:25;13.50;;;5.50;;
3341;SDS011;1684;50.748;6.154;2023-04-03T05:00:59;11.57;;;4.90;;
3341;SDS011;1684;50.748;6.154;2023-04-03T05:03:27;13.23;;;3.90;;
3341;SDS011;1684;50.748;6.154;2023-04-03T05:05:56;14.70;;;5.27;;
3341;SDS011;1684;50.748;6.154;2023-04-03T05:08:24;8.47;;;5.63;;
3341;SDS011;1684;50.748;6.154;2023-04-03T05:10:52;7.73;;;4.23;;
3341;SDS011;1684;50.748;6.154;2023-04-03T05:13:21;9.17;;;5.00;;
3341;SDS011;1684;50.748;6.154;2023-04-03T05:15:50;15.00;;;4.67;;
3341;SDS011;1684;50.748;6.154;2023-04-03T05:18:19;8.70;;;4.50;;
3341;SDS011;1684;50.748;6.154;2023-04-03T05:20:48;13.00;;;5.13;;
3341;SDS011;1684;50.748;6.154;2023-04-03T05:23:16;8.53;;;4.90;;
3341;SDS011;1684;50.748;6.154;2023-04-03T05:25:45;6.23;;;4.00;;
3341;SDS011;1684;50.748;6.154;2023-04-03T05:28:14;8.80;;;5.23;;
3341;SDS011;1684;50.748;6.154;2023-04-03T05:30:43;6.97;;;5.00;;
3341;SDS011;1684;50.748;6.154;2023-04-03T05:33:11;12.27;;;5.83;;
3341;SDS011;1684;50.748;6.154;2023-04-03T05:35:41;7.73;;;5.40;;
3341;SDS011;1684;50.748;6.154;2023-04-03T05:38:10;8.30;;;5.60;;
3341;SDS011;1684;50.748;6.154;2023-04-03T05:40:39;6.50;;;4.70;;
3341;SDS011;1684;50.748;6.154;2023-04-03T05:43:07;13.33;;;4.23;;
3341;SDS011;1684;50.748;6.154;2023-04-03T05:45:37;7.03;;;5.10;;
3341;SDS011;1684;50.748;6.154;2023-04-03T05:48:06;9.83;;;5.20;;
3341;SDS011;1684;50.748;6.154;2023-04-03T05:50:34;9.50;;;7.30;;
3341;SDS011;1684;50.748;6.154;2023-04-03T05:53:09;12.57;;;6.80;;
3341;SDS011;1684;50.748;6.154;2023-04-03T05:55:43;13.93;;;6.97;;
3341;SDS011;1684;50.748;6.154;2023-04-03T05:58:12;8.93;;;6.70;;
3341;SDS011;1684;50.748;6.154;2023-04-03T06:00:40;10.00;;;7.40;;
3341;SDS011;1684;50.748;6.154;2023-04-03T06:03:08;9.67;;;7.03;;
3341;SDS011;1684;50.748;6.154;2023-04-03T06:05:37;13.80;;;7.43;;
3341;SDS011;1684;50.748;6.154;2023-04-03T06:08:06;12.90;;;6.77;;
3341;SDS011;1684;50.748;6.154;2023-04-03T06:10:36;11.00;;;6.80;;
3341;SDS011;1684;50.748;6.154;2023-04-03T06:13:05;9.23;;;5.80;;
3341;SDS011;1684;50.748;6.154;2023-04-03T06:15:34;15.23;;;8.27;;
3341;SDS011;1684;50.748;6.154;2023-04-03T06:18:03;12.20;;;6.40;;
3341;SDS011;1684;50.748;6.154;2023-04-03T06:20:31;12.03;;;7.43;;
3341;SDS011;1684;50.748;6.154;2023-04-03T06:22:59;14.20;;;8.10;;
3341;SDS011;1684;50.748;6.154;2023-04-03T06:25:28;12.70;;;7.50;;
3341;SDS011;1684;50.748;6.154;2023-04-03T06:27:59;12.40;;;6.00;;
3341;SDS011;1684;50.748;6.154;2023-04-03T06:30:27;11.37;;;6.23;;
3341;SDS011;1684;50.748;6.154;2023-04-03T06:32:56;8.47;;;6.50;;
3341;SDS011;1684;50.748;6.154;2023-04-03T06:35:25;8.90;;;5.43;;
3341;SDS011;1684;50.748;6.154;2023-04-03T06:37:54;12.40;;;6.33;;
3341;SDS011;1684;50.748;6.154;2023-04-03T06:40:23;16.77;;;9.80;;
3341;SDS011;1684;50.748;6.154;2023-04-03T06:42:52;12.30;;;7.90;;
3341;SDS011;1684;50.748;6.154;2023-04-03T06:45:22;11.27;;;7.67;;
3341;SDS011;1684;50.748;6.154;2023-04-03T06:47:51;9.50;;;6.90;;
3341;SDS011;1684;50.748;6.154;2023-04-03T06:50:20;14.37;;;8.93;;
3341;SDS011;1684;50.748;6.154;2023-04-03T06:52:48;11.67;;;7.87;;
3341;SDS011;1684;50.748;6.154;2023-04-03T06:55:16;9.00;;;5.37;;
3341;SDS011;1684;50.748;6.154;2023-04-03T06:57:44;13.97;;;8.03;;
3341;SDS011;1684;50.748;6.154;2023-04-03T07:00:13;4.47;;;2.17;;
3341;SDS011;1684;50.748;6.154;2023-04-03T07:02:43;7.90;;;4.10;;
3341;SDS011;1684;50.748;6.154;2023-04-03T07:05:12;10.90;;;6.63;;
3341;SDS011;1684;50.748;6.154;2023-04-03T07:07:41;18.13;;;8.47;;
3341;SDS011;1684;50.748;6.154;2023-04-03T07:10:09;15.43;;;6.40;;
3341;SDS011;1684;50.748;6.154;2023-04-03T07:12:38;12.13;;;6.30;;
3341;SDS011;1684;50.748;6.154;2023-04-03T07:15:07;8.97;;;5.57;;
3341;SDS011;1684;50.748;6.154;2023-04-03T07:17:35;10.23;;;6.30;;
3341;SDS011;1684;50.748;6.154;2023-04-03T07:20:06;12.97;;;6.90;;
3341;SDS011;1684;50.748;6.154;2023-04-03T07:22:34;10.90;;;6.60;;
3341;SDS011;1684;50.748;6.154;2023-04-03T07:25:03;11.47;;;6.73;;
3341;SDS011;1684;50.748;6.154;2023-04-03T07:27:33;7.37;;;5.50;;
3341;SDS011;1684;50.748;6.154;2023-04-03T07:30:01;8.20;;;5.63;;
3341;SDS011;1684;50.748;6.154;2023-04-03T07:32:30;7.30;;;5.40;;
3341;SDS011;1684;50.748;6.154;2023-04-03T07:34:58;8.43;;;5.40;;
3341;SDS011;1684;50.748;6.154;2023-04-03T07:37:30;9.30;;;4.70;;
3341;SDS011;1684;50.748;6.154;2023-04-03T07:39:58;7.40;;;4.73;;
3341;SDS011;1684;50.748;6.154;2023-04-03T07:42:29;8.67;;;5.40;;
3341;SDS011;1684;50.748;6.154;2023-04-03T07:44:57;8.30;;;4.77;;
3341;SDS011;1684;50.748;6.154;2023-04-03T07:47:26;6.73;;;4.33;;
3341;SDS011;1684;50.748;6.154;2023-04-03T07:56:48;5.67;;;3.87;;
3341;SDS011;1684;50.748;6.154;2023-04-03T08:02:46;6.63;;;4.20;;
3341;SDS011;1684;50.748;6.154;2023-04-03T08:05:18;10.67;;;4.70;;
3341;SDS011;1684;50.748;6.154;2023-04-03T08:07:46;8.43;;;3.60;;
3341;SDS011;1684;50.748;6.154;2023-04-03T08:10:15;5.33;;;3.17;;
3341;SDS011;1684;50.748;6.154;2023-04-03T08:12:46;8.10;;;4.70;;
3341;SDS011;1684;50.748;6.154;2023-04-03T08:15:15;6.73;;;3.30;;
3341;SDS011;1684;50.748;6.154;2023-04-03T08:17:43;8.60;;;4.50;;
3341;SDS011;1684;50.748;6.154;2023-04-03T08:20:11;9.30;;;4.63;;
3341;SDS011;1684;50.748;6.154;2023-04-03T08:22:40;9.33;;;5.23;;
3341;SDS011;1684;50.748;6.154;2023-04-03T08:25:08;4.10;;;2.17;;
3341;SDS011;1684;50.748;6.154;2023-04-03T08:27:37;10.97;;;4.00;;
3341;SDS011;1684;50.748;6.154;2023-04-03T08:30:07;10.30;;;4.90;;
3341;SDS011;1684;50.748;6.154;2023-04-03T08:32:36;6.13;;;3.17;;
3341;SDS011;1684;50.748;6.154;2023-04-03T08:35:06;12.20;;;4.03;;
3341;SDS011;1684;50.748;6.154;2023-04-03T08:37:34;6.13;;;4.13;;
3341;SDS011;1684;50.748;6.154;2023-04-03T08:40:04;9.23;;;3.90;;
3341;SDS011;1684;50.748;6.154;2023-04-03T08:42:36;5.07;;;3.00;;
3341;SDS011;1684;50.748;6.154;2023-04-03T08:45:09;8.30;;;4.40;;
3341;SDS011;1684;50.748;6.154;2023-04-03T08:47:39;7.40;;;4.47;;
3341;SDS011;1684;50.748;6.154;2023-04-03T08:50:11;8.00;;;4.77;;
3341;SDS011;1684;50.748;6.154;2023-04-03T08:52:41;3.90;;;1.57;;
3341;SDS011;1684;50.748;6.154;2023-04-03T08:55:13;6.50;;;3.43;;
3341;SDS011;1684;50.748;6.154;2023-04-03T08:57:47;10.57;;;4.53;;
3341;SDS011;1684;50.748;6.154;2023-04-03T09:00:18;8.43;;;4.30;;
3341;SDS011;1684;50.748;6.154;2023-04-03T09:02:47;4.70;;;3.00;;
3341;SDS011;1684;50.748;6.154;2023-04-03T09:05:17;9.43;;;4.00;;
3341;SDS011;1684;50.748;6.154;2023-04-03T09:07:46;11.33;;;3.87;;
3341;SDS011;1684;50.748;6.154;2023-04-03T09:10:16;12.93;;;4.67;;
3341;SDS011;1684;50.748;6.154;2023-04-03T09:12:48;6.50;;;4.20;;
3341;SDS011;1684;50.748;6.154;2023-04-03T09:15:20;9.80;;;4.17;;
3341;SDS011;1684;50.748;6.154;2023-04-03T09:18:04;5.83;;;3.80;;
3341;SDS011;1684;50.748;6.154;2023-04-03T09:20:38;6.57;;;3.43;;
3341;SDS011;1684;50.748;6.154;2023-04-03T09:23:16;7.23;;;4.30;;
3341;SDS011;1684;50.748;6.154;2023-04-03T09:25:45;7.33;;;4.70;;
3341;SDS011;1684;50.748;6.154;2023-04-03T09:28:14;8.73;;;3.90;;
3341;SDS011;1684;50.748;6.154;2023-04-03T09:30:43;5.07;;;2.80;;
3341;SDS011;1684;50.748;6.154;2023-04-03T09:33:12;3.13;;;1.33;;
3341;SDS011;1684;50.748;6.154;2023-04-03T09:35:41;4.43;;;3.50;;
3341;SDS011;1684;50.748;6.154;2023-04-03T09:38:15;4.83;;;3.00;;
3341;SDS011;1684;50.748;6.154;2023-04-03T09:40:45;4.00;;;2.40;;
3341;SDS011;1684;50.748;6.154;2023-04-03T09:43:21;3.17;;;1.67;;
3341;SDS011;1684;50.748;6.154;2023-04-03T09:45:52;6.53;;;2.20;;
3341;SDS011;1684;50.748;6.154;2023-04-03T09:48:20;8.20;;;2.03;;
3341;SDS011;1684;50.748;6.154;2023-04-03T09:50:53;3.53;;;2.07;;
3341;SDS011;1684;50.748;6.154;2023-04-03T09:53:29;5.93;;;1.97;;
3341;SDS011;1684;50.748;6.154;2023-04-03T09:55:57;10.63;;;4.47;;
3341;SDS011;1684;50.748;6.154;2023-04-03T09:58:27;3.97;;;2.50;;
3341;SDS011;1684;50.748;6.154;2023-04-03T10:01:22;5.07;;;1.90;;
3341;SDS011;1684;50.748;6.154;2023-04-03T10:04:02;5.50;;;3.50;;
3341;SDS011;1684;50.748;6.154;2023-04-03T10:06:32;9.53;;;3.97;;
3341;SDS011;1684;50.748;6.154;2023-04-03T10:09:05;5.67;;;3.47;;
3341;SDS011;1684;50.748;6.154;2023-04-03T10:11:34;5.37;;;2.53;;
3341;SDS011;1684;50.748;6.154;2023-04-03T10:14:03;5.10;;;2.97;;
3341;SDS011;1684;50.748;6.154;2023-04-03T10:16:37;10.13;;;3.17;;
3341;SDS011;1684;50.748;6.154;2023-04-03T10:19:20;4.27;;;2.83;;
3341;SDS011;1684;50.748;6.154;2023-04-03T10:21:53;11.47;;;2.63;;
3341;SDS011;1684;50.748;6.154;2023-04-03T10:24:23;7.03;;;3.23;;
3341;SDS011;1684;50.748;6.154;2023-04-03T10:26:55;10.47;;;2.70;;
3341;SDS011;1684;50.748;6.154;2023-04-03T10:29:32;5.10;;;2.57;;
3341;SDS011;1684;50.748;6.154;2023-04-03T10:32:09;5.30;;;2.27;;
3341;SDS011;1684;50.748;6.154;2023-04-03T10:34:40;4.10;;;2.40;;
3341;SDS011;1684;50.748;6.154;2023-04-03T10:37:18;4.00;;;1.43;;
3341;SDS011;1684;50.748;6.154;2023-04-03T10:39:51;5.03;;;2.47;;
3341;SDS011;1684;50.748;6.154;2023-04-03T10:42:23;4.93;;;2.40;;
3341;SDS011;1684;50.748;6.154;2023-04-03T10:44:59;3.73;;;1.93;;
3341;SDS011;1684;50.748;6.154;2023-04-03T10:47:32;5.43;;;2.33;;
3341;SDS011;1684;50.748;6.154;2023-04-03T10:50:08;7.27;;;3.27;;
3341;SDS011;1684;50.748;6.154;2023-04-03T10:52:42;5.40;;;1.60;;
3341;SDS011;1684;50.748;6.154;2023-04-03T10:55:17;3.77;;;2.30;;
3341;SDS011;1684;50.748;6.154;2023-04-03T10:57:52;4.87;;;2.30;;
3341;SDS011;1684;50.748;6.154;2023-04-03T11:00:24;8.03;;;1.93;;
3341;SDS011;1684;50.748;6.154;2023-04-03T11:02:56;3.87;;;1.90;;
3341;SDS011;1684;50.748;6.154;2023-04-03T11:05:27;3.50;;;1.97;;
3341;SDS011;1684;50.748;6.154;2023-04-03T11:07:56;4.63;;;1.90;;
3341;SDS011;1684;50.748;6.154;2023-04-03T11:10:26;3.37;;;2.13;;
3341;SDS011;1684;50.748;6.154;2023-04-03T11:12:58;4.93;;;2.07;;
3341;SDS011;1684;50.748;6.154;2023-04-03T11:15:30;7.77;;;2.63;;
3341;SDS011;1684;50.748;6.154;2023-04-03T11:18:02;4.50;;;1.60;;
3341;SDS011;1684;50.748;6.154;2023-04-03T11:20:34;9.97;;;2.93;;
3341;SDS011;1684;50.748;6.154;2023-04-03T11:23:05;4.30;;;1.77;;
3341;SDS011;1684;50.748;6.154;2023-04-03T11:25:35;4.20;;;1.80;;
3341;SDS011;1684;50.748;6.154;2023-04-03T11:28:05;7.17;;;2.00;;
3341;SDS011;1684;50.748;6.154;2023-04-03T11:30:37;5.30;;;1.70;;
3341;SDS011;1684;50.748;6.154;2023-04-03T11:35:53;3.10;;;1.67;;
3341;SDS011;1684;50.748;6.154;2023-04-03T11:38:23;3.20;;;1.60;;
3341;SDS011;1684;50.748;6.154;2023-04-03T11:40:54;1.97;;;0.93;;
3341;SDS011;1684;50.748;6.154;2023-04-03T11:43:24;5.57;;;2.00;;
3341;SDS011;1684;50.748;6.154;2023-04-03T11:45:54;7.40;;;1.90;;
3341;SDS011;1684;50.748;6.154;2023-04-03T11:48:45;8.07;;;2.50;;
3341;SDS011;1684;50.748;6.154;2023-04-03T11:56:45;2.30;;;1.00;;
3341;SDS011;1684;50.748;6.154;2023-04-03T11:59:21;5.20;;;1.97;;
3341;SDS011;1684;50.748;6.154;2023-04-03T12:01:50;2.40;;;1.20;;
3341;SDS011;1684;50.748;6.154;2023-04-03T12:04:19;2.20;;;1.00;;
3341;SDS011;1684;50.748;6.154;2023-04-03T12:06:49;7.47;;;1.93;;
3341;SDS011;1684;50.748;6.154;2023-04-03T12:09:22;3.80;;;1.63;;
3341;SDS011;1684;50.748;6.154;2023-04-03T12:12:00;3.40;;;1.40;;
3341;SDS011;1684;50.748;6.154;2023-04-03T12:14:29;3.97;;;1.83;;
3341;SDS011;1684;50.748;6.154;2023-04-03T12:16:57;5.40;;;1.83;;
3341;SDS011;1684;50.748;6.154;2023-04-03T12:19:28;6.33;;;1.70;;
3341;SDS011;1684;50.748;6.154;2023-04-03T12:22:11;5.03;;;1.80;;
3341;SDS011;1684;50.748;6.154;2023-04-03T12:24:41;3.57;;;1.70;;
3341;SDS011;1684;50.748;6.154;2023-04-03T12:29:59;4.70;;;1.83;;
3341;SDS011;1684;50.748;6.154;2023-04-03T12:32:35;5.23;;;1.83;;
3341;SDS011;1684;50.748;6.154;2023-04-03T12:35:09;3.60;;;1.80;;
3341;SDS011;1684;50.748;6.154;2023-04-03T12:37:44;3.47;;;1.13;;
3341;SDS011;1684;50.748;6.154;2023-04-03T12:40:16;2.70;;;1.70;;
3341;SDS011;1684;50.748;6.154;2023-04-03T12:45:37;5.23;;;1.67;;
3341;SDS011;1684;50.748;6.154;2023-04-03T12:48:10;3.60;;;1.60;;
3341;SDS011;1684;50.748;6.154;2023-04-03T12:50:41;3.10;;;1.50;;
3341;SDS011;1684;50.748;6.154;2023-04-03T12:53:12;4.00;;;1.70;;
3341;SDS011;1684;50.748;6.154;2023-04-03T12:55:41;3.70;;;1.67;;
3341;SDS011;1684;50.748;6.154;2023-04-03T12:58:13;3.13;;;1.50;;
3341;SDS011;1684;50.748;6.154;2023-04-03T13:00:43;5.23;;;1.70;;
3341;SDS011;1684;50.748;6.154;2023-04-03T13:03:20;4.50;;;1.67;;
3341;SDS011;1684;50.748;6.154;2023-04-03T13:05:49;3.60;;;1.97;;
3341;SDS011;1684;50.748;6.154;2023-04-03T13:08:18;4.40;;;2.20;;
3341;SDS011;1684;50.748;6.154;2023-04-03T13:10:49;3.63;;;1.80;;
3341;SDS011;1684;50.748;6.154;2023-04-03T13:13:18;2.10;;;1.20;;
3341;SDS011;1684;50.748;6.154;2023-04-03T13:15:48;5.80;;;1.90;;
3341;SDS011;1684;50.748;6.154;2023-04-03T13:18:21;4.50;;;2.07;;
3341;SDS011;1684;50.748;6.154;2023-04-03T13:20:50;4.17;;;1.97;;
3341;SDS011;1684;50.748;6.154;2023-04-03T13:23:19;3.47;;;2.17;;
3341;SDS011;1684;50.748;6.154;2023-04-03T13:25:49;3.70;;;1.80;;
3341;SDS011;1684;50.748;6.154;2023-04-03T13:28:18;2.20;;;1.00;;
3341;SDS011;1684;50.748;6.154;2023-04-03T13:30:55;3.10;;;1.47;;
3341;SDS011;1684;50.748;6.154;2023-04-03T13:33:25;2.43;;;1.40;;
3341;SDS011;1684;50.748;6.154;2023-04-03T13:35:56;3.17;;;1.47;;
3341;SDS011;1684;50.748;6.154;2023-04-03T13:38:25;3.80;;;1.50;;
3341;SDS011;1684;50.748;6.154;2023-04-03T13:40:55;2.83;;;1.90;;
3341;SDS011;1684;50.748;6.154;2023-04-03T13:43:24;4.00;;;1.50;;
3341;SDS011;1684;50.748;6.154;2023-04-03T13:45:55;2.00;;;1.00;;
3341;SDS011;1684;50.748;6.154;2023-04-03T13:48:24;2.77;;;1.03;;
3341;SDS011;1684;50.748;6.154;2023-04-03T13:50:57;2.97;;;1.73;;
3341;SDS011;1684;50.748;6.154;2023-04-03T13:53:26;3.83;;;3.07;;
3341;SDS011;1684;50.748;6.154;2023-04-03T13:55:57;4.30;;;1.87;;
3341;SDS011;1684;50.748;6.154;2023-04-03T13:58:27;4.47;;;1.60;;
3341;SDS011;1684;50.748;6.154;2023-04-03T14:00:59;1.90;;;1.00;;
3341;SDS011;1684;50.748;6.154;2023-04-03T14:03:29;2.03;;;1.10;;
3341;SDS011;1684;50.748;6.154;2023-04-03T14:05:57;3.60;;;1.47;;
3341;SDS011;1684;50.748;6.154;2023-04-03T14:08:27;5.10;;;2.03;;
3341;SDS011;1684;50.748;6.154;2023-04-03T14:11:10;3.90;;;1.67;;
3341;SDS011;1684;50.748;6.154;2023-04-03T14:13:40;4.00;;;1.60;;
3341;SDS011;1684;50.748;6.154;2023-04-03T14:16:13;2.67;;;1.10;;
3341;SDS011;1684;50.748;6.154;2023-04-03T14:18:43;4.27;;;1.53;;
3341;SDS011;1684;50.748;6.154;2023-04-03T14:21:12;4.43;;;1.80;;
3341;SDS011;1684;50.748;6.154;2023-04-03T14:23:40;5.17;;;1.47;;
3341;SDS011;1684;50.748;6.154;2023-04-03T14:26:10;3.17;;;1.43;;
3341;SDS011;1684;50.748;6.154;2023-04-03T14:28:39;4.00;;;1.70;;
3341;SDS011;1684;50.748;6.154;2023-04-03T14:31:10;7.80;;;1.70;;
3341;SDS011;1684;50.748;6.154;2023-04-03T14:33:40;3.23;;;1.27;;
3341;SDS011;1684;50.748;6.154;2023-04-03T14:36:12;5.60;;;1.97;;
3341;SDS011;1684;50.748;6.154;2023-04-03T14:38:41;2.90;;;1.30;;
3341;SDS011;1684;50.748;6.154;2023-04-03T14:41:10;2.20;;;1.00;;
3341;SDS011;1684;50.748;6.154;2023-04-03T14:43:42;3.07;;;1.40;;
3341;SDS011;1684;50.748;6.154;2023-04-03T14:46:12;4.63;;;2.07;;
3341;SDS011;1684;50.748;6.154;2023-04-03T14:48:43;2.23;;;1.27;;
3341;SDS011;1684;50.748;6.154;2023-04-03T14:51:12;3.00;;;1.20;;
3341;SDS011;1684;50.748;6.154;2023-04-03T14:53:41;3.17;;;1.50;;
3341;SDS011;1684;50.748;6.154;2023-04-03T14:56:11;2.93;;;1.73;;
3341;SDS011;1684;50.748;6.154;2023-04-03T14:58:40;2.90;;;1.27;;
3341;SDS011;1684;50.748;6.154;2023-04-03T15:01:09;6.37;;;2.13;;
3341;SDS011;1684;50.748;6.154;2023-04-03T15:03:37;3.23;;;1.40;;
3341;SDS011;1684;50.748;6.154;2023-04-03T15:06:09;2.90;;;1.57;;
3341;SDS011;1684;50.748;6.154;2023-04-03T15:08:37;1.60;;;0.83;;
3341;SDS011;1684;50.748;6.154;2023-04-03T15:11:07;2.10;;;0.97;;
3341;SDS011;1684;50.748;6.154;2023-04-03T15:13:36;2.90;;;1.53;;
3341;SDS011;1684;50.748;6.154;2023-04-03T15:16:04;3.60;;;1.17;;
3341;SDS011;1684;50.748;6.154;2023-04-03T15:18:34;2.80;;;1.80;;
3341;SDS011;1684;50.748;6.154;2023-04-03T15:21:04;2.30;;;1.37;;
3341;SDS011;1684;50.748;6.154;2023-04-03T15:23:33;2.53;;;1.60;;
3341;SDS011;1684;50.748;6.154;2023-04-03T15:26:02;3.30;;;1.10;;
3341;SDS011;1684;50.748;6.154;2023-04-03T15:28:31;2.47;;;1.30;;
3341;SDS011;1684;50.748;6.154;2023-04-03T15:31:01;3.10;;;1.60;;
3341;SDS011;1684;50.748;6.154;2023-04-03T15:33:30;4.27;;;2.10;;
3341;SDS011;1684;50.748;6.154;2023-04-03T15:35:58;4.20;;;1.60;;
3341;SDS011;1684;50.748;6.154;2023-04-03T15:38:34;3.03;;;1.60;;
3341;SDS011;1684;50.748;6.154;2023-04-03T15:41:04;4.13;;;2.30;;
3341;SDS011;1684;50.748;6.154;2023-04-03T15:43:32;3.67;;;1.13;;
3341;SDS011;1684;50.748;6.154;2023-04-03T15:46:01;2.53;;;1.30;;
3341;SDS011;1684;50.748;6.154;2023-04-03T15:48:29;3.63;;;1.80;;
3341;SDS011;1684;50.748;6.154;2023-04-03T15:50:58;3.20;;;1.90;;
3341;SDS011;1684;50.748;6.154;2023-04-03T15:53:27;4.80;;;2.20;;